sensor_id;sensor_type;location;lat;lon;timestamp;temperature;humidity
82877;DHT22;72655;47.596;7.658;2023-11-18T06:37:31;4.80;99.90
82877;DHT22;72655;47.596;7.658;2023-11-18T06:39:58;4.80;99.90
82877;DHT22;72655;47.596;7.658;2023-11-18T06:42:25;4.80;99.90
82877;DHT22;72655;47.596;7.658;2023-11-18T06:44:52;4.80;99.90
82877;DHT22;72655;47.596;7.658;2023-11-18T06:47:19;4.90;99.90
82877;DHT22;72655;47.596;7.658;2023-11-18T06:49:46;4.90;99.90
82877;DHT22;72655;47.596;7.658;2023-11-18T06:52:14;4.90;99.90
82877;DHT22;72655;47.596;7.658;2023-11-18T06:54:42;4.90;99.90
82877;DHT22;72655;47.596;7.658;2023-11-18T06:57:09;4.90;99.90
82877;DHT22;72655;47.596;7.658;2023-11-18T06:59:36;4.90;99.90
82877;DHT22;72655;47.596;7.658;2023-11-18T07:02:04;4.90;99.90
82877;DHT22;72655;47.596;7.658;2023-11-18T07:04:31;4.90;99.90
82877;DHT22;72655;47.596;7.658;2023-11-18T07:06:58;4.90;99.90
82877;DHT22;72655;47.596;7.658;2023-11-18T07:09:25;4.90;99.90
82877;DHT22;72655;47.596;7.658;2023-11-18T07:11:54;5.00;99.90
82877;DHT22;72655;47.596;7.658;2023-11-18T07:14:21;5.00;99.90
82877;DHT22;72655;47.596;7.658;2023-11-18T07:16:48;5.00;99.90
82877;DHT22;72655;47.596;7.658;2023-11-18T07:19:15;5.00;99.90
82877;DHT22;72655;47.596;7.658;2023-11-18T07:21:45;5.10;99.90
82877;DHT22;72655;47.596;7.658;2023-11-18T07:24:12;5.10;99.90
82877;DHT22;72655;47.596;7.658;2023-11-18T07:26:39;5.10;99.90
82877;DHT22;72655;47.596;7.658;2023-11-18T07:29:08;5.20;99.90
82877;DHT22;72655;47.596;7.658;2023-11-18T07:31:35;5.30;99.90
82877;DHT22;72655;47.596;7.658;2023-11-18T07:34:02;5.30;99.90
82877;DHT22;72655;47.596;7.658;2023-11-18T07:36:31;5.40;99.90
82877;DHT22;72655;47.596;7.658;2023-11-18T07:38:58;5.40;99.90
82877;DHT22;72655;47.596;7.658;2023-11-18T07:41:26;5.50;99.90
82877;DHT22;72655;47.596;7.658;2023-11-18T07:43:53;5.50;99.90
82877;DHT22;72655;47.596;7.658;2023-11-18T07:46:23;5.50;99.90
82877;DHT22;72655;47.596;7.658;2023-11-18T07:48:50;5.60;99.90
82877;DHT22;72655;47.596;7.658;2023-11-18T07:51:18;5.60;99.90
82877;DHT22;72655;47.596;7.658;2023-11-18T07:53:47;5.60;99.90
82877;DHT22;72655;47.596;7.658;2023-11-18T07:56:14;5.60;99.90
82877;DHT22;72655;47.596;7.658;2023-11-18T07:58:42;5.60;99.90
82877;DHT22;72655;47.596;7.658;2023-11-18T08:01:11;5.60;99.90
82877;DHT22;72655;47.596;7.658;2023-11-18T08:03:39;5.60;99.90
82877;DHT22;72655;47.596;7.658;2023-11-18T08:06:07;5.70;99.90
82877;DHT22;72655;47.596;7.658;2023-11-18T08:08:34;5.70;99.90
82877;DHT22;72655;47.596;7.658;2023-11-18T08:11:02;5.70;99.90
82877;DHT22;72655;47.596;7.658;2023-11-18T08:13:30;5.80;99.90
82877;DHT22;72655;47.596;7.658;2023-11-18T08:15:57;5.90;99.90
82877;DHT22;72655;47.596;7.658;2023-11-18T08:18:24;6.00;99.90
82877;DHT22;72655;47.596;7.658;2023-11-18T08:20:54;6.00;99.90
82877;DHT22;72655;47.596;7.658;2023-11-18T08:23:23;6.10;99.90
82877;DHT22;72655;47.596;7.658;2023-11-18T08:25:50;6.20;99.90
82877;DHT22;72655;47.596;7.658;2023-11-18T08:28:17;6.20;99.90
82877;DHT22;72655;47.596;7.658;2023-11-18T08:30:44;6.30;99.90
82877;DHT22;72655;47.596;7.658;2023-11-18T08:33:14;6.40;99.90
82877;DHT22;72655;47.596;7.658;2023-11-18T08:35:41;6.40;99.90
82877;DHT22;72655;47.596;7.658;2023-11-18T08:38:10;6.50;99.90
82877;DHT22;72655;47.596;7.658;2023-11-18T08:40:38;6.50;99.90
82877;DHT22;72655;47.596;7.658;2023-11-18T08:43:05;6.50;99.90
82877;DHT22;72655;47.596;7.658;2023-11-18T08:45:33;6.60;99.90
82877;DHT22;72655;47.596;7.658;2023-11-18T08:48:01;6.60;99.90
82877;DHT22;72655;47.596;7.658;2023-11-18T08:50:38;6.70;99.90
82877;DHT22;72655;47.596;7.658;2023-11-18T08:53:06;6.80;99.90
82877;DHT22;72655;47.596;7.658;2023-11-18T08:55:37;6.80;99.90
82877;DHT22;72655;47.596;7.658;2023-11-18T08:58:16;6.80;99.90
82877;DHT22;72655;47.596;7.658;2023-11-18T09:00:48;6.80;99.90
82877;DHT22;72655;47.596;7.658;2023-11-18T09:03:19;6.90;99.90
82877;DHT22;72655;47.596;7.658;2023-11-18T09:05:54;6.90;99.90
82877;DHT22;72655;47.596;7.658;2023-11-18T09:08:25;6.90;99.90
82877;DHT22;72655;47.596;7.658;2023-11-18T09:10:54;6.90;99.90
82877;DHT22;72655;47.596;7.658;2023-11-18T09:13:22;7.00;99.90
82877;DHT22;72655;47.596;7.658;2023-11-18T09:15:51;7.00;99.90
82877;DHT22;72655;47.596;7.658;2023-11-18T09:18:17;7.10;99.90
82877;DHT22;72655;47.596;7.658;2023-11-18T09:20:47;7.20;99.90
82877;DHT22;72655;47.596;7.658;2023-11-18T09:23:14;7.20;99.90
82877;DHT22;72655;47.596;7.658;2023-11-18T09:25:41;7.30;99.90
82877;DHT22;72655;47.596;7.658;2023-11-18T09:28:14;7.40;99.90
82877;DHT22;72655;47.596;7.658;2023-11-18T09:30:42;7.40;99.90
82877;DHT22;72655;47.596;7.658;2023-11-18T09:33:16;7.40;99.90
82877;DHT22;72655;47.596;7.658;2023-11-18T09:35:51;7.50;99.90
82877;DHT22;72655;47.596;7.658;2023-11-18T09:38:22;7.60;99.90
82877;DHT22;72655;47.596;7.658;2023-11-18T09:40:51;7.60;99.90
82877;DHT22;72655;47.596;7.658;2023-11-18T09:43:20;7.70;99.90
82877;DHT22;72655;47.596;7.658;2023-11-18T09:45:54;7.70;99.90
82877;DHT22;72655;47.596;7.658;2023-11-18T09:48:21;7.70;99.90
82877;DHT22;72655;47.596;7.658;2023-11-18T09:50:52;7.80;99.90
82877;DHT22;72655;47.596;7.658;2023-11-18T09:53:19;7.90;99.90
82877;DHT22;72655;47.596;7.658;2023-11-18T09:55:57;7.90;99.90
82877;DHT22;72655;47.596;7.658;2023-11-18T09:58:34;7.90;99.90
82877;DHT22;72655;47.596;7.658;2023-11-18T10:01:07;7.90;99.90
82877;DHT22;72655;47.596;7.658;2023-11-18T10:03:40;7.90;99.90
82877;DHT22;72655;47.596;7.658;2023-11-18T10:06:08;7.90;99.90
82877;DHT22;72655;47.596;7.658;2023-11-18T10:08:36;7.90;99.90
82877;DHT22;72655;47.596;7.658;2023-11-18T10:11:05;7.90;99.90
82877;DHT22;72655;47.596;7.658;2023-11-18T10:13:36;7.90;99.90
82877;DHT22;72655;47.596;7.658;2023-11-18T10:16:07;8.00;99.90
82877;DHT22;72655;47.596;7.658;2023-11-18T10:18:34;8.00;99.90
82877;DHT22;72655;47.596;7.658;2023-11-18T10:21:06;8.10;99.90
82877;DHT22;72655;47.596;7.658;2023-11-18T10:23:37;8.20;99.90
82877;DHT22;72655;47.596;7.658;2023-11-18T10:26:05;8.20;99.90
82877;DHT22;72655;47.596;7.658;2023-11-18T10:28:34;8.10;99.90
82877;DHT22;72655;47.596;7.658;2023-11-18T10:31:06;8.20;99.90
82877;DHT22;72655;47.596;7.658;2023-11-18T10:33:36;8.10;99.90
82877;DHT22;72655;47.596;7.658;2023-11-18T10:36:05;8.10;99.90
82877;DHT22;72655;47.596;7.658;2023-11-18T10:38:38;8.10;99.90
82877;DHT22;72655;47.596;7.658;2023-11-18T10:41:09;8.10;99.90
82877;DHT22;72655;47.596;7.658;2023-11-18T10:43:37;8.10;99.90
82877;DHT22;72655;47.596;7.658;2023-11-18T10:46:09;8.20;99.90
82877;DHT22;72655;47.596;7.658;2023-11-18T10:48:39;8.20;99.90
82877;DHT22;72655;47.596;7.658;2023-11-18T10:51:09;8.20;99.90
82877;DHT22;72655;47.596;7.658;2023-11-18T10:53:39;8.20;99.90
82877;DHT22;72655;47.596;7.658;2023-11-18T10:56:17;8.20;99.90
82877;DHT22;72655;47.596;7.658;2023-11-18T10:58:50;8.20;99.90
82877;DHT22;72655;47.596;7.658;2023-11-18T11:01:27;8.10;99.90
82877;DHT22;72655;47.596;7.658;2023-11-18T11:03:54;8.10;99.90
82877;DHT22;72655;47.596;7.658;2023-11-18T11:06:23;8.10;99.90
82877;DHT22;72655;47.596;7.658;2023-11-18T11:08:50;8.10;99.90
82877;DHT22;72655;47.596;7.658;2023-11-18T11:11:20;8.10;99.90
82877;DHT22;72655;47.596;7.658;2023-11-18T11:13:50;8.00;99.90
82877;DHT22;72655;47.596;7.658;2023-11-18T11:16:26;8.10;99.90
82877;DHT22;72655;47.596;7.658;2023-11-18T11:19:03;8.00;99.90
82877;DHT22;72655;47.596;7.658;2023-11-18T11:21:44;8.00;99.90
82877;DHT22;72655;47.596;7.658;2023-11-18T11:24:27;8.10;99.90
82877;DHT22;72655;47.596;7.658;2023-11-18T11:29:59;8.10;99.90
82877;DHT22;72655;47.596;7.658;2023-11-18T11:32:43;8.10;99.90
82877;DHT22;72655;47.596;7.658;2023-11-18T11:35:18;8.00;99.90
82877;DHT22;72655;47.596;7.658;2023-11-18T11:37:47;8.00;99.90
82877;DHT22;72655;47.596;7.658;2023-11-18T11:40:16;8.00;99.90
82877;DHT22;72655;47.596;7.658;2023-11-18T11:42:49;8.00;99.90
82877;DHT22;72655;47.596;7.658;2023-11-18T11:45:23;8.00;99.90
82877;DHT22;72655;47.596;7.658;2023-11-18T11:47:57;8.10;99.90
82877;DHT22;72655;47.596;7.658;2023-11-18T11:50:49;8.00;99.90
82877;DHT22;72655;47.596;7.658;2023-11-18T11:53:22;8.10;99.90
82877;DHT22;72655;47.596;7.658;2023-11-18T11:55:52;8.10;99.90
82877;DHT22;72655;47.596;7.658;2023-11-18T11:58:26;8.10;99.90
82877;DHT22;72655;47.596;7.658;2023-11-18T12:00:53;8.10;99.90
82877;DHT22;72655;47.596;7.658;2023-11-18T12:03:23;8.10;99.90
82877;DHT22;72655;47.596;7.658;2023-11-18T12:05:54;8.10;99.90
82877;DHT22;72655;47.596;7.658;2023-11-18T12:08:22;8.10;99.90
82877;DHT22;72655;47.596;7.658;2023-11-18T12:10:54;8.10;99.90
82877;DHT22;72655;47.596;7.658;2023-11-18T12:13:21;8.10;99.90
82877;DHT22;72655;47.596;7.658;2023-11-18T12:15:52;8.10;99.90
82877;DHT22;72655;47.596;7.658;2023-11-18T12:18:25;8.10;99.90
82877;DHT22;72655;47.596;7.658;2023-11-18T12:20:52;8.10;99.90
82877;DHT22;72655;47.596;7.658;2023-11-18T12:23:23;8.10;99.90
82877;DHT22;72655;47.596;7.658;2023-11-18T12:25:50;8.20;99.90
82877;DHT22;72655;47.596;7.658;2023-11-18T12:28:25;8.20;99.90
82877;DHT22;72655;47.596;7.658;2023-11-18T12:30:54;8.30;99.90
82877;DHT22;72655;47.596;7.658;2023-11-18T12:34:01;8.30;99.90
82877;DHT22;72655;47.596;7.658;2023-11-18T12:36:56;8.30;99.90
82877;DHT22;72655;47.596;7.658;2023-11-18T12:40:02;8.40;99.90
82877;DHT22;72655;47.596;7.658;2023-11-18T12:42:59;8.40;99.90
82877;DHT22;72655;47.596;7.658;2023-11-18T12:45:46;8.30;99.90
82877;DHT22;72655;47.596;7.658;2023-11-18T12:48:21;8.30;99.90
82877;DHT22;72655;47.596;7.658;2023-11-18T12:50:54;8.30;99.90
82877;DHT22;72655;47.596;7.658;2023-11-18T12:53:23;8.30;99.90
82877;DHT22;72655;47.596;7.658;2023-11-18T12:55:52;8.30;99.90
82877;DHT22;72655;47.596;7.658;2023-11-18T12:58:19;8.20;99.90
82877;DHT22;72655;47.596;7.658;2023-11-18T13:00:48;8.20;99.90
82877;DHT22;72655;47.596;7.658;2023-11-18T13:03:15;8.20;99.90
82877;DHT22;72655;47.596;7.658;2023-11-18T13:05:43;8.20;99.90
82877;DHT22;72655;47.596;7.658;2023-11-18T13:08:13;8.10;99.90
82877;DHT22;72655;47.596;7.658;2023-11-18T13:10:41;8.20;99.90
82877;DHT22;72655;47.596;7.658;2023-11-18T13:13:10;8.20;99.90
82877;DHT22;72655;47.596;7.658;2023-11-18T13:15:40;8.20;99.90
82877;DHT22;72655;47.596;7.658;2023-11-18T13:18:07;8.20;99.90
82877;DHT22;72655;47.596;7.658;2023-11-18T13:20:34;8.20;99.90
82877;DHT22;72655;47.596;7.658;2023-11-18T13:23:02;8.20;99.90
82877;DHT22;72655;47.596;7.658;2023-11-18T13:25:35;8.30;99.90
82877;DHT22;72655;47.596;7.658;2023-11-18T13:28:04;8.30;99.90
82877;DHT22;72655;47.596;7.658;2023-11-18T13:30:33;8.40;99.90
82877;DHT22;72655;47.596;7.658;2023-11-18T13:33:00;8.40;99.90
82877;DHT22;72655;47.596;7.658;2023-11-18T13:35:28;8.40;99.90
82877;DHT22;72655;47.596;7.658;2023-11-18T13:37:55;8.40;99.90
82877;DHT22;72655;47.596;7.658;2023-11-18T13:40:24;8.40;99.90
82877;DHT22;72655;47.596;7.658;2023-11-18T13:43:02;8.40;99.90
82877;DHT22;72655;47.596;7.658;2023-11-18T13:45:30;8.40;99.90
82877;DHT22;72655;47.596;7.658;2023-11-18T13:48:00;8.40;99.90
82877;DHT22;72655;47.596;7.658;2023-11-18T13:50:27;8.40;99.90
82877;DHT22;72655;47.596;7.658;2023-11-18T13:52:55;8.40;99.90
82877;DHT22;72655;47.596;7.658;2023-11-18T13:55:24;8.40;99.90
82877;DHT22;72655;47.596;7.658;2023-11-18T13:57:56;8.40;99.90
82877;DHT22;72655;47.596;7.658;2023-11-18T14:00:26;8.30;99.90
82877;DHT22;72655;47.596;7.658;2023-11-18T14:02:55;8.40;99.90
82877;DHT22;72655;47.596;7.658;2023-11-18T14:05:23;8.40;99.90
82877;DHT22;72655;47.596;7.658;2023-11-18T14:07:52;8.40;99.90
82877;DHT22;72655;47.596;7.658;2023-11-18T14:10:21;8.40;99.90
82877;DHT22;72655;47.596;7.658;2023-11-18T14:13:01;8.40;99.90
82877;DHT22;72655;47.596;7.658;2023-11-18T14:15:32;8.40;99.90
82877;DHT22;72655;47.596;7.658;2023-11-18T14:18:01;8.40;99.90
82877;DHT22;72655;47.596;7.658;2023-11-18T14:20:28;8.40;99.90
82877;DHT22;72655;47.596;7.658;2023-11-18T14:22:56;8.40;99.90
82877;DHT22;72655;47.596;7.658;2023-11-18T14:25:24;8.40;99.90
82877;DHT22;72655;47.596;7.658;2023-11-18T14:27:50;8.40;99.90
82877;DHT22;72655;47.596;7.658;2023-11-18T14:30:19;8.50;99.90
82877;DHT22;72655;47.596;7.658;2023-11-18T14:32:47;8.50;99.90
82877;DHT22;72655;47.596;7.658;2023-11-18T14:35:14;8.50;99.90
82877;DHT22;72655;47.596;7.658;2023-11-18T14:37:42;8.40;99.90
82877;DHT22;72655;47.596;7.658;2023-11-18T14:40:11;8.40;99.90
82877;DHT22;72655;47.596;7.658;2023-11-18T14:42:41;8.40;99.90
82877;DHT22;72655;47.596;7.658;2023-11-18T14:45:10;8.40;99.90
82877;DHT22;72655;47.596;7.658;2023-11-18T14:47:38;8.40;99.90
82877;DHT22;72655;47.596;7.658;2023-11-18T14:50:07;8.40;99.90
82877;DHT22;72655;47.596;7.658;2023-11-18T14:52:43;8.40;99.90
82877;DHT22;72655;47.596;7.658;2023-11-18T14:55:11;8.30;99.90
82877;DHT22;72655;47.596;7.658;2023-11-18T14:57:39;8.30;99.90
82877;DHT22;72655;47.596;7.658;2023-11-18T15:00:08;8.40;99.90
82877;DHT22;72655;47.596;7.658;2023-11-18T15:02:45;8.30;99.90
82877;DHT22;72655;47.596;7.658;2023-11-18T15:05:14;8.30;99.90
82877;DHT22;72655;47.596;7.658;2023-11-18T15:07:44;8.30;99.90
82877;DHT22;72655;47.596;7.658;2023-11-18T15:10:14;8.30;99.90
82877;DHT22;72655;47.596;7.658;2023-11-18T15:12:45;8.30;99.90
82877;DHT22;72655;47.596;7.658;2023-11-18T15:15:12;8.20;99.90
82877;DHT22;72655;47.596;7.658;2023-11-18T15:17:44;8.20;99.90
82877;DHT22;72655;47.596;7.658;2023-11-18T15:20:13;8.20;99.90
82877;DHT22;72655;47.596;7.658;2023-11-18T15:22:41;8.10;99.90
82877;DHT22;72655;47.596;7.658;2023-11-18T15:25:10;8.20;99.90
82877;DHT22;72655;47.596;7.658;2023-11-18T15:27:39;8.10;99.90
82877;DHT22;72655;47.596;7.658;2023-11-18T15:30:07;8.10;99.90
82877;DHT22;72655;47.596;7.658;2023-11-18T15:32:37;8.10;99.90
82877;DHT22;72655;47.596;7.658;2023-11-18T15:35:05;8.10;99.90
82877;DHT22;72655;47.596;7.658;2023-11-18T15:37:36;8.10;99.90
82877;DHT22;72655;47.596;7.658;2023-11-18T15:40:05;8.10;99.90
82877;DHT22;72655;47.596;7.658;2023-11-18T15:42:40;8.10;99.90
82877;DHT22;72655;47.596;7.658;2023-11-18T15:45:11;8.10;99.90
82877;DHT22;72655;47.596;7.658;2023-11-18T15:47:38;8.10;99.90
82877;DHT22;72655;47.596;7.658;2023-11-18T15:50:09;8.10;99.90
82877;DHT22;72655;47.596;7.658;2023-11-18T15:52:39;8.10;99.90
82877;DHT22;72655;47.596;7.658;2023-11-18T15:55:07;8.10;99.90
82877;DHT22;72655;47.596;7.658;2023-11-18T15:57:39;8.10;99.90
82877;DHT22;72655;47.596;7.658;2023-11-18T16:00:08;8.10;99.90
82877;DHT22;72655;47.596;7.658;2023-11-18T16:02:41;8.10;99.90
82877;DHT22;72655;47.596;7.658;2023-11-18T16:05:11;8.10;99.90
82877;DHT22;72655;47.596;7.658;2023-11-18T16:07:41;8.10;99.90
82877;DHT22;72655;47.596;7.658;2023-11-18T16:10:08;8.10;99.90
82877;DHT22;72655;47.596;7.658;2023-11-18T16:12:35;8.10;99.90
82877;DHT22;72655;47.596;7.658;2023-11-18T16:15:02;8.10;99.90
82877;DHT22;72655;47.596;7.658;2023-11-18T16:17:31;8.10;99.90
82877;DHT22;72655;47.596;7.658;2023-11-18T16:19:58;8.10;99.90
82877;DHT22;72655;47.596;7.658;2023-11-18T16:22:24;8.10;99.90
82877;DHT22;72655;47.596;7.658;2023-11-18T16:24:52;8.10;99.90
82877;DHT22;72655;47.596;7.658;2023-11-18T16:27:19;8.10;99.90
82877;DHT22;72655;47.596;7.658;2023-11-18T16:29:46;8.00;99.90
82877;DHT22;72655;47.596;7.658;2023-11-18T16:32:14;8.00;99.90
82877;DHT22;72655;47.596;7.658;2023-11-18T16:34:41;8.00;99.90
82877;DHT22;72655;47.596;7.658;2023-11-18T16:37:08;8.00;99.90
82877;DHT22;72655;47.596;7.658;2023-11-18T16:39:35;8.00;99.90
82877;DHT22;72655;47.596;7.658;2023-11-18T16:42:03;8.00;99.90
82877;DHT22;72655;47.596;7.658;2023-11-18T16:44:30;8.00;99.90
82877;DHT22;72655;47.596;7.658;2023-11-18T16:46:58;8.00;99.90
82877;DHT22;72655;47.596;7.658;2023-11-18T16:49:25;8.00;99.90
82877;DHT22;72655;47.596;7.658;2023-11-18T16:51:52;8.00;99.90
82877;DHT22;72655;47.596;7.658;2023-11-18T16:54:21;8.00;99.90
82877;DHT22;72655;47.596;7.658;2023-11-18T16:56:49;8.00;99.90
82877;DHT22;72655;47.596;7.658;2023-11-18T16:59:19;8.00;99.90
82877;DHT22;72655;47.596;7.658;2023-11-18T17:01:46;8.00;99.90
82877;DHT22;72655;47.596;7.658;2023-11-18T17:04:13;8.00;99.90
82877;DHT22;72655;47.596;7.658;2023-11-18T17:06:41;8.00;99.90
82877;DHT22;72655;47.596;7.658;2023-11-18T17:09:10;8.00;99.90
82877;DHT22;72655;47.596;7.658;2023-11-18T17:11:37;8.00;99.90
82877;DHT22;72655;47.596;7.658;2023-11-18T17:14:04;8.00;99.90
82877;DHT22;72655;47.596;7.658;2023-11-18T17:16:32;8.00;99.90
82877;DHT22;72655;47.596;7.658;2023-11-18T17:18:59;8.00;99.90
82877;DHT22;72655;47.596;7.658;2023-11-18T17:21:26;8.00;99.90
82877;DHT22;72655;47.596;7.658;2023-11-18T17:23:53;8.00;99.90
82877;DHT22;72655;47.596;7.658;2023-11-18T17:26:20;7.90;99.90
82877;DHT22;72655;47.596;7.658;2023-11-18T17:28:49;7.90;99.90
82877;DHT22;72655;47.596;7.658;2023-11-18T17:31:16;7.90;99.90
82877;DHT22;72655;47.596;7.658;2023-11-18T17:33:45;7.90;99.90
82877;DHT22;72655;47.596;7.658;2023-11-18T17:36:12;7.90;99.90
82877;DHT22;72655;47.596;7.658;2023-11-18T17:38:40;7.90;99.90
82877;DHT22;72655;47.596;7.658;2023-11-18T17:41:09;7.80;99.90
82877;DHT22;72655;47.596;7.658;2023-11-18T17:43:35;7.80;99.90
82877;DHT22;72655;47.596;7.658;2023-11-18T17:46:04;7.80;99.90
82877;DHT22;72655;47.596;7.658;2023-11-18T17:48:33;7.80;99.90
82877;DHT22;72655;47.596;7.658;2023-11-18T17:51:02;7.80;99.90
82877;DHT22;72655;47.596;7.658;2023-11-18T17:53:29;7.80;99.90
82877;DHT22;72655;47.596;7.658;2023-11-18T17:55:57;7.90;99.90
82877;DHT22;72655;47.596;7.658;2023-11-18T17:58:24;7.90;99.90
82877;DHT22;72655;47.596;7.658;2023-11-18T18:00:51;7.90;99.90
82877;DHT22;72655;47.596;7.658;2023-11-18T18:03:18;8.00;99.90
82877;DHT22;72655;47.596;7.658;2023-11-18T18:05:46;8.00;99.90
82877;DHT22;72655;47.596;7.658;2023-11-18T18:08:14;8.00;99.90
82877;DHT22;72655;47.596;7.658;2023-11-18T18:10:41;8.10;99.90
82877;DHT22;72655;47.596;7.658;2023-11-18T18:13:09;8.10;99.90
82877;DHT22;72655;47.596;7.658;2023-11-18T18:15:36;8.10;99.90
82877;DHT22;72655;47.596;7.658;2023-11-18T18:18:04;8.10;99.90
82877;DHT22;72655;47.596;7.658;2023-11-18T18:20:31;8.20;99.90
82877;DHT22;72655;47.596;7.658;2023-11-18T18:22:58;8.10;99.90
82877;DHT22;72655;47.596;7.658;2023-11-18T18:25:26;8.20;99.90
82877;DHT22;72655;47.596;7.658;2023-11-18T18:27:54;8.20;99.90
82877;DHT22;72655;47.596;7.658;2023-11-18T18:30:21;8.20;99.90
82877;DHT22;72655;47.596;7.658;2023-11-18T18:32:48;8.30;99.90
82877;DHT22;72655;47.596;7.658;2023-11-18T18:35:16;8.40;99.90
82877;DHT22;72655;47.596;7.658;2023-11-18T18:37:43;8.30;99.90
82877;DHT22;72655;47.596;7.658;2023-11-18T18:40:11;8.30;99.90
82877;DHT22;72655;47.596;7.658;2023-11-18T18:42:41;8.30;99.90
